< < Back
Terminal Aerodrome Forecast


Current Version              Previous Versions:   1  2  3  4  5  6  7  8  9  

Terminal Aerodrome Forecast

413
FTUS44 KOHX 250347 AAA
TAFCSV
TAF AMD
KCSV 250347Z 2504/2524 00000KT P6SM SKC
     FM251200 24006KT P6SM SCT100 BKN250=

Latest METAR

241
SAUS70 KWBC 251456
MTRCSV
METAR KCSV 251453Z AUTO 18004KT 10SM SCT120 23/14 A3026 RMK AO2 SLP229
T02280144 51010


USA.gov is the U.S. government's official web portal to all federal, state and local government web resources and services.